As Olivia — DYQC — position and weather

sailwx.info

Track history (hours):
 
Tides and Currents Weather Stations Pressure Air Temp Water Temp Dewpoint Dewpoint Depression Visibility Wind Speed Wind Dir Waves Ship Positions

As Olivia

Last reported at 2014-Oct-15 12:33 UTC. Time now 2014-Oct-23 00:48 UTC.
Position N 26°58' W 079°45'.

Length 146 m; draft 10.1 m.

Type: Ship (hazmat cat B). MMSI: 548767000.

Date/timePositionNaut miles runAvg speedWind from/ knotsBaromVisibWave heightAir tempDewpointWater temp
2014-Oct-15 12:33N 26°58' W 079°45'2417.9
2014-Oct-15 11:12N 26°33' W 079°44'1217.7
2014-Oct-15 10:34N 26°22' W 079°45'1817.8
2014-Oct-15 09:33N 26°04' W 079°45'1817.6
2014-Oct-15 08:33N 25°46' W 079°45'  
2014-Oct-12 09:21N 29°21' W 094°47'1012.2
2014-Oct-12 08:33N 29°30' W 094°52'1111.4
2014-Oct-12 07:33N 29°40' W 094°59'8 8.1
2014-Oct-12 06:33N 29°46' W 095°05'1 0.0
2014-Oct-11 11:33N 29°45' W 095°06'7 7.1
2014-Oct-11 10:34N 29°41' W 094°59'1212.0
2014-Oct-11 09:34N 29°30' W 094°53'  
2014-Oct-07 22:22N 29°23' W 094°54'0 0.0
2014-Oct-07 21:33N 29°23' W 094°54'0 0.0
2014-Oct-07 20:32N 29°23' W 094°54'0 0.0
2014-Oct-07 19:33N 29°23' W 094°54'5 5.3
2014-Oct-07 18:33N 29°21' W 094°48'253 7.6
2014-Oct-06 09:05N 29°41' W 089°58'1211.9
2014-Oct-06 08:04N 29°53' W 089°58'2 3.6
2014-Oct-06 07:24N 29°55' W 089°58'8 8.8
2014-Oct-06 06:30N 29°55' W 090°07'10 9.3
2014-Oct-06 05:26N 29°58' W 090°18'8 9.3
2014-Oct-06 04:33N 29°60' W 090°27'1111.0
2014-Oct-06 03:33N 30°03' W 090°39'10 9.4
2014-Oct-06 02:30N 30°03' W 090°51'15 1.2
2014-Oct-05 14:08N 30°13' W 091°04'  
Track history (hours):
 
Tides and Currents Weather Stations Pressure Air Temp Water Temp Dewpoint Dewpoint Depression Visibility Wind Speed Wind Dir Waves Ship Positions

As Olivia

Last reported at 2014-Oct-15 12:33 UTC. Time now 2014-Oct-23 00:48 UTC.
Position N 26°58' W 079°45'.

Length 146 m; draft 10.1 m.

Type: Ship (hazmat cat B). MMSI: 548767000.

Date/timePositionNaut miles runAvg speedWind from/ knotsBaromVisibWave heightAir tempDewpointWater temp
2014-Oct-15 12:33N 26°58' W 079°45'2417.9
2014-Oct-15 11:12N 26°33' W 079°44'1217.7
2014-Oct-15 10:34N 26°22' W 079°45'1817.8
2014-Oct-15 09:33N 26°04' W 079°45'1817.6
2014-Oct-15 08:33N 25°46' W 079°45'  
2014-Oct-12 09:21N 29°21' W 094°47'1012.2
2014-Oct-12 08:33N 29°30' W 094°52'1111.4
2014-Oct-12 07:33N 29°40' W 094°59'8 8.1
2014-Oct-12 06:33N 29°46' W 095°05'1 0.0
2014-Oct-11 11:33N 29°45' W 095°06'7 7.1
2014-Oct-11 10:34N 29°41' W 094°59'1212.0
2014-Oct-11 09:34N 29°30' W 094°53'  
2014-Oct-07 22:22N 29°23' W 094°54'0 0.0
2014-Oct-07 21:33N 29°23' W 094°54'0 0.0
2014-Oct-07 20:32N 29°23' W 094°54'0 0.0
2014-Oct-07 19:33N 29°23' W 094°54'5 5.3
2014-Oct-07 18:33N 29°21' W 094°48'253 7.6
2014-Oct-06 09:05N 29°41' W 089°58'1211.9
2014-Oct-06 08:04N 29°53' W 089°58'2 3.6
2014-Oct-06 07:24N 29°55' W 089°58'8 8.8
2014-Oct-06 06:30N 29°55' W 090°07'10 9.3
2014-Oct-06 05:26N 29°58' W 090°18'8 9.3
2014-Oct-06 04:33N 29°60' W 090°27'1111.0
2014-Oct-06 03:33N 30°03' W 090°39'10 9.4
2014-Oct-06 02:30N 30°03' W 090°51'15 1.2
2014-Oct-05 14:08N 30°13' W 091°04'  

Dump ship's entire track history